sensor_id;sensor_type;location;lat;lon;timestamp;pressure;altitude;pressure_sealevel;temperature;humidity
3590;BME280;1809;48.470;9.226;2023-05-21T00:00:09;145744.28;;;14.20;100.00
3590;BME280;1809;48.470;9.226;2023-05-21T00:02:36;145391.59;;;14.19;100.00
3590;BME280;1809;48.470;9.226;2023-05-21T00:05:01;145379.56;;;14.14;100.00
3590;BME280;1809;48.470;9.226;2023-05-21T00:07:27;145728.63;;;14.14;100.00
3590;BME280;1809;48.470;9.226;2023-05-21T00:09:52;145720.25;;;14.10;100.00
3590;BME280;1809;48.470;9.226;2023-05-21T00:12:18;146063.25;;;14.08;100.00
3590;BME280;1809;48.470;9.226;2023-05-21T00:14:43;146072.91;;;14.12;100.00
3590;BME280;1809;48.470;9.226;2023-05-21T00:17:08;146068.09;;;14.10;100.00
3590;BME280;1809;48.470;9.226;2023-05-21T00:19:34;146065.66;;;14.09;100.00
3590;BME280;1809;48.470;9.226;2023-05-21T00:21:59;146761.47;;;14.08;100.00
3590;BME280;1809;48.470;9.226;2023-05-21T00:24:27;146751.81;;;14.04;100.00
3590;BME280;1809;48.470;9.226;2023-05-21T00:26:53;147098.50;;;14.02;100.00
3590;BME280;1809;48.470;9.226;2023-05-21T00:29:18;147789.53;;;13.99;100.00
3590;BME280;1809;48.470;9.226;2023-05-21T00:31:44;148128.94;;;13.95;100.00
3590;BME280;1809;48.470;9.226;2023-05-21T00:34:09;148832.38;;;13.97;100.00
3590;BME280;1809;48.470;9.226;2023-05-21T00:36:34;149174.31;;;13.94;100.00
3590;BME280;1809;48.470;9.226;2023-05-21T00:39:00;149518.66;;;13.92;100.00
3590;BME280;1809;48.470;9.226;2023-05-21T00:41:26;149518.66;;;13.92;100.00
3590;BME280;1809;48.470;9.226;2023-05-21T00:43:54;149523.63;;;13.94;100.00
3590;BME280;1809;48.470;9.226;2023-05-21T00:46:20;149537.22;;;14.00;100.00
3590;BME280;1809;48.470;9.226;2023-05-21T00:48:46;149523.63;;;13.94;100.00
3590;BME280;1809;48.470;9.226;2023-05-21T00:51:13;149519.88;;;13.93;100.00
3590;BME280;1809;48.470;9.226;2023-05-21T00:53:40;149864.31;;;13.91;100.00
3590;BME280;1809;48.470;9.226;2023-05-21T00:56:05;150209.94;;;13.89;100.00
3590;BME280;1809;48.470;9.226;2023-05-21T00:58:32;150541.88;;;13.82;100.00
3590;BME280;1809;48.470;9.226;2023-05-21T01:00:58;150888.81;;;13.81;100.00
3590;BME280;1809;48.470;9.226;2023-05-21T01:03:28;150887.56;;;13.81;100.00
3590;BME280;1809;48.470;9.226;2023-05-21T01:05:54;150534.41;;;13.79;100.00
3590;BME280;1809;48.470;9.226;2023-05-21T01:08:24;150522.00;;;13.74;100.00
3590;BME280;1809;48.470;9.226;2023-05-21T01:10:51;150860.13;;;13.70;100.00
3590;BME280;1809;48.470;9.226;2023-05-21T01:13:18;151904.50;;;13.68;100.00
3590;BME280;1809;48.470;9.226;2023-05-21T01:15:48;152599.66;;;13.67;100.00
3590;BME280;1809;48.470;9.226;2023-05-21T01:18:14;152932.69;;;13.60;100.00
3590;BME280;1809;48.470;9.226;2023-05-21T01:20:40;153277.09;;;13.58;100.00
3590;BME280;1809;48.470;9.226;2023-05-21T01:23:06;153963.44;;;13.53;100.00
3590;BME280;1809;48.470;9.226;2023-05-21T01:25:33;153959.59;;;13.52;100.00
3590;BME280;1809;48.470;9.226;2023-05-21T01:27:59;154325.75;;;13.58;100.00
3590;BME280;1809;48.470;9.226;2023-05-21T01:30:24;154324.47;;;13.58;100.00
3590;BME280;1809;48.470;9.226;2023-05-21T01:35:34;154313.00;;;13.53;100.00
3590;BME280;1809;48.470;9.226;2023-05-21T01:38:11;154657.50;;;13.51;100.00
3590;BME280;1809;48.470;9.226;2023-05-21T01:40:43;154638.28;;;13.43;100.00
3590;BME280;1809;48.470;9.226;2023-05-21T01:43:10;154981.44;;;13.41;100.00
3590;BME280;1809;48.470;9.226;2023-05-21T01:45:39;155328.44;;;13.40;100.00
3590;BME280;1809;48.470;9.226;2023-05-21T01:48:07;156032.84;;;13.42;100.00
3590;BME280;1809;48.470;9.226;2023-05-21T01:50:34;156041.91;;;13.45;100.00
3590;BME280;1809;48.470;9.226;2023-05-21T01:53:01;155327.16;;;13.39;100.00
3590;BME280;1809;48.470;9.226;2023-05-21T01:55:28;155323.31;;;13.38;100.00
3590;BME280;1809;48.470;9.226;2023-05-21T01:57:54;155305.31;;;13.31;100.00
3590;BME280;1809;48.470;9.226;2023-05-21T02:00:21;155995.41;;;13.27;100.00
3590;BME280;1809;48.470;9.226;2023-05-21T02:02:47;156681.72;;;13.22;100.00
3590;BME280;1809;48.470;9.226;2023-05-21T02:05:13;157379.75;;;13.22;100.00
3590;BME280;1809;48.470;9.226;2023-05-21T02:07:38;157729.44;;;13.22;100.00
3590;BME280;1809;48.470;9.226;2023-05-21T02:10:05;158126.34;;;13.40;100.00
3590;BME280;1809;48.470;9.226;2023-05-21T02:12:30;157386.25;;;13.24;100.00
3590;BME280;1809;48.470;9.226;2023-05-21T02:14:55;157721.63;;;13.19;100.00
3590;BME280;1809;48.470;9.226;2023-05-21T02:17:21;158056.97;;;13.13;100.00
3590;BME280;1809;48.470;9.226;2023-05-21T02:19:48;158051.84;;;13.10;100.00
3590;BME280;1809;48.470;9.226;2023-05-21T02:22:14;158054.41;;;13.11;100.00
3590;BME280;1809;48.470;9.226;2023-05-21T02:24:39;158045.19;;;13.08;100.00
3590;BME280;1809;48.470;9.226;2023-05-21T02:27:05;158045.19;;;13.08;100.00
3590;BME280;1809;48.470;9.226;2023-05-21T02:29:31;158039.97;;;13.06;100.00
3590;BME280;1809;48.470;9.226;2023-05-21T02:31:56;158034.75;;;13.04;100.00
3590;BME280;1809;48.470;9.226;2023-05-21T02:34:21;158015.09;;;12.96;100.00
3590;BME280;1809;48.470;9.226;2023-05-21T02:36:48;158004.66;;;12.92;100.00
3590;BME280;1809;48.470;9.226;2023-05-21T02:39:17;158016.44;;;12.97;100.00
3590;BME280;1809;48.470;9.226;2023-05-21T02:41:42;157998.09;;;12.89;100.00
3590;BME280;1809;48.470;9.226;2023-05-21T02:44:08;157995.50;;;12.88;100.00
3590;BME280;1809;48.470;9.226;2023-05-21T02:46:33;157979.78;;;12.82;100.00
3590;BME280;1809;48.470;9.226;2023-05-21T02:48:58;157979.78;;;12.82;100.00
3590;BME280;1809;48.470;9.226;2023-05-21T02:51:24;157966.69;;;12.77;100.00
3590;BME280;1809;48.470;9.226;2023-05-21T02:53:49;157960.13;;;12.75;100.00
3590;BME280;1809;48.470;9.226;2023-05-21T02:56:14;157952.28;;;12.72;100.00
3590;BME280;1809;48.470;9.226;2023-05-21T02:58:40;157940.50;;;12.67;100.00
3590;BME280;1809;48.470;9.226;2023-05-21T03:01:05;157940.50;;;12.67;100.00
3590;BME280;1809;48.470;9.226;2023-05-21T03:03:31;157960.13;;;12.75;100.00
3590;BME280;1809;48.470;9.226;2023-05-21T03:05:56;157973.22;;;12.80;100.00
3590;BME280;1809;48.470;9.226;2023-05-21T03:08:23;157965.34;;;12.77;100.00
3590;BME280;1809;48.470;9.226;2023-05-21T03:10:48;157956.19;;;12.73;100.00
3590;BME280;1809;48.470;9.226;2023-05-21T03:13:14;157957.50;;;12.74;100.00
3590;BME280;1809;48.470;9.226;2023-05-21T03:15:39;157948.34;;;12.70;100.00
3590;BME280;1809;48.470;9.226;2023-05-21T03:18:05;157924.78;;;12.61;100.00
3590;BME280;1809;48.470;9.226;2023-05-21T03:20:30;157914.34;;;12.57;100.00
3590;BME280;1809;48.470;9.226;2023-05-21T03:22:56;157898.66;;;12.51;100.00
3590;BME280;1809;48.470;9.226;2023-05-21T03:25:22;157896.00;;;12.50;100.00
3590;BME280;1809;48.470;9.226;2023-05-21T03:27:49;157890.78;;;12.48;100.00
3590;BME280;1809;48.470;9.226;2023-05-21T03:30:14;157877.69;;;12.43;100.00
3590;BME280;1809;48.470;9.226;2023-05-21T03:32:40;157859.34;;;12.36;100.00
3590;BME280;1809;48.470;9.226;2023-05-21T03:35:06;157851.50;;;12.33;100.00
3590;BME280;1809;48.470;9.226;2023-05-21T03:37:31;157856.75;;;12.35;100.00
3590;BME280;1809;48.470;9.226;2023-05-21T03:39:56;157861.97;;;12.37;100.00
3590;BME280;1809;48.470;9.226;2023-05-21T03:42:22;157860.66;;;12.36;100.00
3590;BME280;1809;48.470;9.226;2023-05-21T03:44:47;157846.28;;;12.31;100.00
3590;BME280;1809;48.470;9.226;2023-05-21T03:47:12;157859.34;;;12.36;100.00
3590;BME280;1809;48.470;9.226;2023-05-21T03:49:38;157851.50;;;12.33;100.00
3590;BME280;1809;48.470;9.226;2023-05-21T03:52:03;157851.50;;;12.33;100.00
3590;BME280;1809;48.470;9.226;2023-05-21T03:54:29;157856.75;;;12.35;100.00
3590;BME280;1809;48.470;9.226;2023-05-21T03:56:54;157856.75;;;12.35;100.00
3590;BME280;1809;48.470;9.226;2023-05-21T03:59:20;157863.31;;;12.37;100.00
3590;BME280;1809;48.470;9.226;2023-05-21T04:01:46;157888.16;;;12.47;100.00
3590;BME280;1809;48.470;9.226;2023-05-21T04:04:11;157893.38;;;12.49;100.00
3590;BME280;1809;48.470;9.226;2023-05-21T04:06:36;157893.38;;;12.49;100.00
3590;BME280;1809;48.470;9.226;2023-05-21T04:09:02;157909.09;;;12.55;100.00
3590;BME280;1809;48.470;9.226;2023-05-21T04:11:28;157930.06;;;12.63;100.00
3590;BME280;1809;48.470;9.226;2023-05-21T04:13:55;157940.50;;;12.67;100.00
3590;BME280;1809;48.470;9.226;2023-05-21T04:16:20;157945.75;;;12.69;100.00
3590;BME280;1809;48.470;9.226;2023-05-21T04:18:46;157950.97;;;12.71;100.00
3590;BME280;1809;48.470;9.226;2023-05-21T04:21:12;157956.19;;;12.73;100.00
3590;BME280;1809;48.470;9.226;2023-05-21T04:23:37;157945.75;;;12.69;100.00
3590;BME280;1809;48.470;9.226;2023-05-21T04:26:03;157954.94;;;12.73;100.00
3590;BME280;1809;48.470;9.226;2023-05-21T04:28:29;157973.22;;;12.80;100.00
3590;BME280;1809;48.470;9.226;2023-05-21T04:30:54;157990.22;;;12.86;100.00
3590;BME280;1809;48.470;9.226;2023-05-21T04:33:21;158011.19;;;12.94;100.00
3590;BME280;1809;48.470;9.226;2023-05-21T04:35:46;157995.50;;;12.88;100.00
3590;BME280;1809;48.470;9.226;2023-05-21T04:38:14;158011.19;;;12.94;100.00
3590;BME280;1809;48.470;9.226;2023-05-21T04:40:45;158021.66;;;12.99;100.00
3590;BME280;1809;48.470;9.226;2023-05-21T04:43:11;158033.44;;;13.03;100.00
3590;BME280;1809;48.470;9.226;2023-05-21T04:45:36;158062.28;;;13.14;100.00
3590;BME280;1809;48.470;9.226;2023-05-21T04:48:02;158081.94;;;13.22;100.00
3590;BME280;1809;48.470;9.226;2023-05-21T04:50:27;158095.00;;;13.27;100.00
3590;BME280;1809;48.470;9.226;2023-05-21T04:52:55;158121.13;;;13.38;100.00
3590;BME280;1809;48.470;9.226;2023-05-21T04:55:20;157797.41;;;13.48;100.00
3590;BME280;1809;48.470;9.226;2023-05-21T04:57:46;156048.41;;;13.48;100.00
3590;BME280;1809;48.470;9.226;2023-05-21T05:00:12;155017.34;;;13.55;100.00
3590;BME280;1809;48.470;9.226;2023-05-21T05:02:38;154315.56;;;13.54;100.00
3590;BME280;1809;48.470;9.226;2023-05-21T05:05:04;153282.19;;;13.60;100.00
3590;BME280;1809;48.470;9.226;2023-05-21T05:07:29;152968.09;;;13.74;100.00
3590;BME280;1809;48.470;9.226;2023-05-21T05:09:55;151572.63;;;13.75;100.00
3590;BME280;1809;48.470;9.226;2023-05-21T05:12:20;150898.81;;;13.85;100.00
3590;BME280;1809;48.470;9.226;2023-05-21T05:14:46;150602.91;;;14.07;100.00
3590;BME280;1809;48.470;9.226;2023-05-21T05:17:11;148871.72;;;14.14;100.00
3590;BME280;1809;48.470;9.226;2023-05-21T05:19:39;147159.25;;;14.28;100.00
3590;BME280;1809;48.470;9.226;2023-05-21T05:22:05;144728.19;;;14.33;100.00
3590;BME280;1809;48.470;9.226;2023-05-21T05:24:30;143349.88;;;14.41;100.00
3590;BME280;1809;48.470;9.226;2023-05-21T05:26:55;142322.97;;;14.49;100.00
3590;BME280;1809;48.470;9.226;2023-05-21T05:29:21;141648.53;;;14.60;100.00
3590;BME280;1809;48.470;9.226;2023-05-21T05:31:46;139591.19;;;14.75;100.00
3590;BME280;1809;48.470;9.226;2023-05-21T05:34:11;136466.66;;;14.81;100.00
3590;BME280;1809;48.470;9.226;2023-05-21T05:36:37;133691.44;;;14.87;100.00
3590;BME280;1809;48.470;9.226;2023-05-21T05:39:02;133017.91;;;14.97;100.00
3590;BME280;1809;48.470;9.226;2023-05-21T05:41:27;131302.75;;;15.10;100.00
3590;BME280;1809;48.470;9.226;2023-05-21T05:43:53;126052.47;;;14.94;100.00
3590;BME280;1809;48.470;9.226;2023-05-21T05:46:18;125406.81;;;15.19;100.00
3590;BME280;1809;48.470;9.226;2023-05-21T05:48:43;123701.41;;;15.35;100.00
3590;BME280;1809;48.470;9.226;2023-05-21T05:51:09;122003.97;;;15.55;100.00
3590;BME280;1809;48.470;9.226;2023-05-21T05:53:35;115775.63;;;15.67;100.00
3590;BME280;1809;48.470;9.226;2023-05-21T05:56:02;111644.41;;;15.83;100.00
3590;BME280;1809;48.470;9.226;2023-05-21T05:58:28;106446.41;;;15.82;100.00
3590;BME280;1809;48.470;9.226;2023-05-21T06:00:53;101994.34;;;16.09;100.00
3590;BME280;1809;48.470;9.226;2023-05-21T06:03:19;94749.59;;;16.17;100.00
3590;BME280;1809;48.470;9.226;2023-05-21T06:05:44;88181.53;;;16.05;100.00
3590;BME280;1809;48.470;9.226;2023-05-21T06:08:09;86820.19;;;16.17;100.00
3590;BME280;1809;48.470;9.226;2023-05-21T06:10:35;92323.63;;;16.09;100.00
3590;BME280;1809;48.470;9.226;2023-05-21T06:13:00;93417.91;;;16.49;100.00
3590;BME280;1809;48.470;9.226;2023-05-21T06:15:26;84151.75;;;16.80;100.00
3590;BME280;1809;48.470;9.226;2023-05-21T06:17:51;64626.25;;;17.32;100.00
3590;BME280;1809;48.470;9.226;2023-05-21T06:20:16;40056.91;;;17.69;100.00
3590;BME280;1809;48.470;9.226;2023-05-21T06:22:42;18682.09;;;18.03;100.00
3590;BME280;1809;48.470;9.226;2023-05-21T06:25:07;-16678.50;;;18.31;100.00
3590;BME280;1809;48.470;9.226;2023-05-21T06:27:34;-16697.09;;;18.98;100.00
3590;BME280;1809;48.470;9.226;2023-05-21T06:30:00;-16699.75;;;19.07;100.00
3590;BME280;1809;48.470;9.226;2023-05-21T06:32:25;-16724.38;;;19.96;100.00
3590;BME280;1809;48.470;9.226;2023-05-21T06:34:50;-16758.63;;;21.20;100.00
3590;BME280;1809;48.470;9.226;2023-05-21T06:37:19;-16787.81;;;22.25;100.00
3590;BME280;1809;48.470;9.226;2023-05-21T06:39:47;-16810.16;;;23.06;100.00
3590;BME280;1809;48.470;9.226;2023-05-21T06:42:13;-16829.41;;;23.76;100.00
3590;BME280;1809;48.470;9.226;2023-05-21T06:44:38;-16799.41;;;22.67;100.00
3590;BME280;1809;48.470;9.226;2023-05-21T06:47:04;-16803.44;;;22.82;100.00
3590;BME280;1809;48.470;9.226;2023-05-21T06:49:31;-16790.47;;;22.35;100.00
3590;BME280;1809;48.470;9.226;2023-05-21T06:51:56;-16772.59;;;21.70;100.00
3590;BME280;1809;48.470;9.226;2023-05-21T06:54:21;-16800.66;;;22.72;100.00
3590;BME280;1809;48.470;9.226;2023-05-21T06:56:47;-16784.75;;;22.14;100.00
3590;BME280;1809;48.470;9.226;2023-05-21T06:59:12;-16780.56;;;21.99;100.00
3590;BME280;1809;48.470;9.226;2023-05-21T07:01:38;-16795.34;;;22.52;100.00
3590;BME280;1809;48.470;9.226;2023-05-21T07:04:06;-16799.25;;;22.67;100.00
3590;BME280;1809;48.470;9.226;2023-05-21T07:06:31;-16801.78;;;22.76;100.00
3590;BME280;1809;48.470;9.226;2023-05-21T07:08:57;-16798.41;;;22.64;100.00
3590;BME280;1809;48.470;9.226;2023-05-21T07:11:22;-16796.19;;;22.56;100.00
3590;BME280;1809;48.470;9.226;2023-05-21T07:13:52;-16821.72;;;23.48;100.00
3590;BME280;1809;48.470;9.226;2023-05-21T07:16:18;-16795.63;;;22.54;100.00
3590;BME280;1809;48.470;9.226;2023-05-21T07:18:44;-16795.06;;;22.51;100.00
3590;BME280;1809;48.470;9.226;2023-05-21T07:21:09;-16781.94;;;22.04;100.00
3590;BME280;1809;48.470;9.226;2023-05-21T07:23:35;-16792.56;;;22.42;100.00
3590;BME280;1809;48.470;9.226;2023-05-21T07:26:00;-16798.13;;;22.63;100.00
3590;BME280;1809;48.470;9.226;2023-05-21T07:28:25;-16785.56;;;22.17;100.00
3590;BME280;1809;48.470;9.226;2023-05-21T07:30:50;-16778.59;;;21.92;100.00
3590;BME280;1809;48.470;9.226;2023-05-21T07:33:16;-16772.44;;;21.70;100.00
3590;BME280;1809;48.470;9.226;2023-05-21T07:35:43;-16792.28;;;22.41;100.00
3590;BME280;1809;48.470;9.226;2023-05-21T07:38:09;-16805.41;;;22.89;100.00
3590;BME280;1809;48.470;9.226;2023-05-21T07:40:34;-16807.34;;;22.96;100.00
3590;BME280;1809;48.470;9.226;2023-05-21T07:42:59;-16818.25;;;23.35;100.00
3590;BME280;1809;48.470;9.226;2023-05-21T07:45:24;-16823.81;;;23.55;100.00
3590;BME280;1809;48.470;9.226;2023-05-21T07:47:50;-16841.41;;;24.19;100.00
3590;BME280;1809;48.470;9.226;2023-05-21T07:50:15;-16850.59;;;24.52;100.00
3590;BME280;1809;48.470;9.226;2023-05-21T07:52:40;-16851.84;;;24.57;100.00
3590;BME280;1809;48.470;9.226;2023-05-21T07:55:07;-16838.88;;;24.10;100.00
3590;BME280;1809;48.470;9.226;2023-05-21T07:57:33;-16824.38;;;23.58;100.00
3590;BME280;1809;48.470;9.226;2023-05-21T07:59:59;-16830.38;;;23.79;100.00
3590;BME280;1809;48.470;9.226;2023-05-21T08:02:24;-16825.34;;;23.61;100.00
3590;BME280;1809;48.470;9.226;2023-05-21T08:04:50;-16797.84;;;22.62;100.00
3590;BME280;1809;48.470;9.226;2023-05-21T08:07:16;-16809.31;;;23.03;100.00
3590;BME280;1809;48.470;9.226;2023-05-21T08:09:44;-16805.41;;;22.89;100.00
3590;BME280;1809;48.470;9.226;2023-05-21T08:12:09;-16800.81;;;22.72;100.00
3590;BME280;1809;48.470;9.226;2023-05-21T08:14:38;-16795.34;;;22.52;100.00
3590;BME280;1809;48.470;9.226;2023-05-21T08:17:03;-16792.97;;;22.44;100.00
3590;BME280;1809;48.470;9.226;2023-05-21T08:19:28;-16788.78;;;22.29;100.00
3590;BME280;1809;48.470;9.226;2023-05-21T08:21:54;-16773.69;;;21.74;100.00
3590;BME280;1809;48.470;9.226;2023-05-21T08:24:19;-16772.16;;;21.69;100.00
3590;BME280;1809;48.470;9.226;2023-05-21T08:26:45;-16762.25;;;21.33;100.00
3590;BME280;1809;48.470;9.226;2023-05-21T08:29:11;-16747.56;;;20.80;100.00
3590;BME280;1809;48.470;9.226;2023-05-21T08:31:36;-16752.03;;;20.96;100.00
3590;BME280;1809;48.470;9.226;2023-05-21T08:34:04;-16762.94;;;21.35;100.00
3590;BME280;1809;48.470;9.226;2023-05-21T08:36:29;-16765.19;;;21.43;100.00
3590;BME280;1809;48.470;9.226;2023-05-21T08:38:55;-16780.00;;;21.97;100.00
3590;BME280;1809;48.470;9.226;2023-05-21T08:41:21;-16787.53;;;22.24;100.00
3590;BME280;1809;48.470;9.226;2023-05-21T08:43:54;-16794.66;;;22.50;100.00
3590;BME280;1809;48.470;9.226;2023-05-21T08:46:22;-16803.72;;;22.83;100.00
3590;BME280;1809;48.470;9.226;2023-05-21T08:48:50;-16799.25;;;22.67;100.00
3590;BME280;1809;48.470;9.226;2023-05-21T08:51:16;-16796.75;;;22.58;100.00
3590;BME280;1809;48.470;9.226;2023-05-21T08:53:42;-16803.72;;;22.83;100.00
3590;BME280;1809;48.470;9.226;2023-05-21T08:56:10;-16813.22;;;23.17;100.00
3590;BME280;1809;48.470;9.226;2023-05-21T08:58:38;-16820.75;;;23.44;100.00
3590;BME280;1809;48.470;9.226;2023-05-21T09:01:06;-16827.44;;;23.69;100.00
3590;BME280;1809;48.470;9.226;2023-05-21T09:03:34;-16819.34;;;23.39;100.00
3590;BME280;1809;48.470;9.226;2023-05-21T09:06:03;-16822.72;;;23.51;100.00
3590;BME280;1809;48.470;9.226;2023-05-21T09:08:34;-16831.34;;;23.83;100.00
3590;BME280;1809;48.470;9.226;2023-05-21T09:11:00;-16811.81;;;23.12;100.00
3590;BME280;1809;48.470;9.226;2023-05-21T09:13:27;-16798.56;;;22.64;100.00
3590;BME280;1809;48.470;9.226;2023-05-21T09:15:53;-16790.03;;;22.33;100.00
3590;BME280;1809;48.470;9.226;2023-05-21T09:18:18;-16798.69;;;22.65;100.00
3590;BME280;1809;48.470;9.226;2023-05-21T09:20:43;-16805.25;;;22.88;100.00
3590;BME280;1809;48.470;9.226;2023-05-21T09:23:09;-16803.59;;;22.82;100.00
3590;BME280;1809;48.470;9.226;2023-05-21T09:25:40;-16806.53;;;22.93;100.00
3590;BME280;1809;48.470;9.226;2023-05-21T09:28:15;-16818.53;;;23.36;100.00
3590;BME280;1809;48.470;9.226;2023-05-21T09:30:50;-16816.84;;;23.30;100.00
3590;BME280;1809;48.470;9.226;2023-05-21T09:33:25;-16809.31;;;23.03;100.00
3590;BME280;1809;48.470;9.226;2023-05-21T09:35:50;-16816.16;;;23.28;100.00
3590;BME280;1809;48.470;9.226;2023-05-21T09:38:16;-16822.56;;;23.51;100.00
3590;BME280;1809;48.470;9.226;2023-05-21T09:40:44;-16819.50;;;23.40;100.00
3590;BME280;1809;48.470;9.226;2023-05-21T09:43:15;-16821.19;;;23.46;100.00
3590;BME280;1809;48.470;9.226;2023-05-21T09:45:54;-16822.28;;;23.50;100.00
3590;BME280;1809;48.470;9.226;2023-05-21T09:48:42;-16823.00;;;23.52;100.00
3590;BME280;1809;48.470;9.226;2023-05-21T09:51:15;-16833.59;;;23.91;100.00
3590;BME280;1809;48.470;9.226;2023-05-21T09:53:54;-16829.13;;;23.75;100.00
3590;BME280;1809;48.470;9.226;2023-05-21T09:56:28;-16827.44;;;23.69;100.00
3590;BME280;1809;48.470;9.226;2023-05-21T09:58:59;-16834.28;;;23.93;100.00
3590;BME280;1809;48.470;9.226;2023-05-21T10:01:26;-16837.63;;;24.05;100.00
3590;BME280;1809;48.470;9.226;2023-05-21T10:03:55;-16841.25;;;24.19;100.00
3590;BME280;1809;48.470;9.226;2023-05-21T10:06:25;-16847.13;;;24.40;100.00
3590;BME280;1809;48.470;9.226;2023-05-21T10:08:53;-16842.66;;;24.24;100.00
3590;BME280;1809;48.470;9.226;2023-05-21T10:11:24;-16851.84;;;24.57;100.00
3590;BME280;1809;48.470;9.226;2023-05-21T10:13:56;-16846.13;;;24.36;100.00
3590;BME280;1809;48.470;9.226;2023-05-21T10:16:22;-16850.88;;;24.53;100.00
3590;BME280;1809;48.470;9.226;2023-05-21T10:18:48;-16850.88;;;24.53;100.00
3590;BME280;1809;48.470;9.226;2023-05-21T10:21:14;-16847.81;;;24.42;100.00
3590;BME280;1809;48.470;9.226;2023-05-21T10:23:41;-16840.69;;;24.17;100.00
3590;BME280;1809;48.470;9.226;2023-05-21T10:26:08;-16840.56;;;24.16;100.00
3590;BME280;1809;48.470;9.226;2023-05-21T10:28:35;-16840.44;;;24.16;100.00
3590;BME280;1809;48.470;9.226;2023-05-21T10:31:00;-16838.03;;;24.07;100.00
3590;BME280;1809;48.470;9.226;2023-05-21T10:33:26;-16832.75;;;23.88;100.00
3590;BME280;1809;48.470;9.226;2023-05-21T10:35:53;-16833.31;;;23.90;100.00
3590;BME280;1809;48.470;9.226;2023-05-21T10:38:19;-16840.56;;;24.16;100.00
3590;BME280;1809;48.470;9.226;2023-05-21T10:40:47;-16837.06;;;24.03;100.00
3590;BME280;1809;48.470;9.226;2023-05-21T10:51:56;-16841.53;;;24.20;100.00
3590;BME280;1809;48.470;9.226;2023-05-21T10:57:09;-16845.03;;;24.32;100.00
3590;BME280;1809;48.470;9.226;2023-05-21T10:59:42;-16848.94;;;24.46;100.00
3590;BME280;1809;48.470;9.226;2023-05-21T11:02:10;-16842.78;;;24.24;100.00
3590;BME280;1809;48.470;9.226;2023-05-21T11:04:36;-16847.25;;;24.40;100.00
3590;BME280;1809;48.470;9.226;2023-05-21T11:07:06;-16844.75;;;24.31;100.00
3590;BME280;1809;48.470;9.226;2023-05-21T11:09:31;-16848.66;;;24.45;100.00
3590;BME280;1809;48.470;9.226;2023-05-21T11:11:57;-16861.47;;;24.92;100.00
3590;BME280;1809;48.470;9.226;2023-05-21T11:14:55;-16865.94;;;25.08;100.00
3590;BME280;1809;48.470;9.226;2023-05-21T11:17:38;-16881.69;;;25.65;100.00
3590;BME280;1809;48.470;9.226;2023-05-21T11:20:07;-16876.94;;;25.48;100.00
3590;BME280;1809;48.470;9.226;2023-05-21T11:22:34;-16886.84;;;25.84;100.00
3590;BME280;1809;48.470;9.226;2023-05-21T11:25:00;-16879.03;;;25.55;100.00
3590;BME280;1809;48.470;9.226;2023-05-21T11:27:37;-16872.06;;;25.30;100.00
3590;BME280;1809;48.470;9.226;2023-05-21T11:30:07;-16876.81;;;25.47;100.00
3590;BME280;1809;48.470;9.226;2023-05-21T11:32:44;-16888.25;;;25.89;100.00
3590;BME280;1809;48.470;9.226;2023-05-21T11:35:26;-16890.75;;;25.98;100.00
3590;BME280;1809;48.470;9.226;2023-05-21T11:37:55;-16894.78;;;26.12;100.00
3590;BME280;1809;48.470;9.226;2023-05-21T11:40:24;-16901.06;;;26.35;100.00
3590;BME280;1809;48.470;9.226;2023-05-21T11:42:52;-16897.16;;;26.21;100.00
3590;BME280;1809;48.470;9.226;2023-05-21T11:45:19;-16891.56;;;26.01;100.00
3590;BME280;1809;48.470;9.226;2023-05-21T11:47:46;-16890.19;;;25.96;100.00
3590;BME280;1809;48.470;9.226;2023-05-21T11:50:13;-16886.56;;;25.83;100.00
3590;BME280;1809;48.470;9.226;2023-05-21T11:52:40;-16888.25;;;25.89;100.00
3590;BME280;1809;48.470;9.226;2023-05-21T11:55:08;-16882.09;;;25.66;100.00
3590;BME280;1809;48.470;9.226;2023-05-21T11:57:35;-16874.31;;;25.38;100.00
3590;BME280;1809;48.470;9.226;2023-05-21T12:00:01;-16871.09;;;25.27;100.00
3590;BME280;1809;48.470;9.226;2023-05-21T12:02:35;-16877.66;;;25.50;100.00
3590;BME280;1809;48.470;9.226;2023-05-21T12:05:01;-16882.53;;;25.68;100.00
3590;BME280;1809;48.470;9.226;2023-05-21T12:07:27;-16882.38;;;25.67;100.00
3590;BME280;1809;48.470;9.226;2023-05-21T12:09:54;-16886.84;;;25.84;100.00
3590;BME280;1809;48.470;9.226;2023-05-21T12:12:23;-16889.91;;;25.95;100.00
3590;BME280;1809;48.470;9.226;2023-05-21T12:14:49;-16890.47;;;25.97;100.00
3590;BME280;1809;48.470;9.226;2023-05-21T12:17:17;-16894.09;;;26.10;100.00
3590;BME280;1809;48.470;9.226;2023-05-21T12:19:44;-16882.94;;;25.70;100.00
3590;BME280;1809;48.470;9.226;2023-05-21T12:22:10;-16903.41;;;26.44;100.00
3590;BME280;1809;48.470;9.226;2023-05-21T12:24:37;-16907.19;;;26.57;100.00
3590;BME280;1809;48.470;9.226;2023-05-21T12:27:04;-16906.63;;;26.55;100.00
3590;BME280;1809;48.470;9.226;2023-05-21T12:29:34;-16911.63;;;26.73;100.00
3590;BME280;1809;48.470;9.226;2023-05-21T12:32:01;-16920.28;;;27.05;100.00
3590;BME280;1809;48.470;9.226;2023-05-21T12:37:02;-16906.22;;;26.54;100.00
3590;BME280;1809;48.470;9.226;2023-05-21T12:39:30;-16892.97;;;26.06;100.00
3590;BME280;1809;48.470;9.226;2023-05-21T12:41:55;-16895.47;;;26.15;100.00
3590;BME280;1809;48.470;9.226;2023-05-21T12:44:20;-16886.84;;;25.84;100.00
3590;BME280;1809;48.470;9.226;2023-05-21T12:46:46;-16886.28;;;25.82;100.00
3590;BME280;1809;48.470;9.226;2023-05-21T12:49:33;-16891.31;;;26.00;100.00
3590;BME280;1809;48.470;9.226;2023-05-21T12:52:01;-16894.66;;;26.12;100.00
3590;BME280;1809;48.470;9.226;2023-05-21T12:54:29;-16896.31;;;26.18;100.00
3590;BME280;1809;48.470;9.226;2023-05-21T12:56:54;-16892.13;;;26.03;100.00
3590;BME280;1809;48.470;9.226;2023-05-21T12:59:20;-16889.34;;;25.93;100.00
3590;BME280;1809;48.470;9.226;2023-05-21T13:01:46;-16883.78;;;25.73;100.00
3590;BME280;1809;48.470;9.226;2023-05-21T13:04:12;-16885.19;;;25.78;100.00
3590;BME280;1809;48.470;9.226;2023-05-21T13:06:41;-16877.09;;;25.48;100.00
3590;BME280;1809;48.470;9.226;2023-05-21T13:09:07;-16886.72;;;25.83;100.00
3590;BME280;1809;48.470;9.226;2023-05-21T13:11:32;-16888.25;;;25.89;100.00
3590;BME280;1809;48.470;9.226;2023-05-21T13:13:57;-16886.28;;;25.82;100.00